sensor_id;sensor_type;location;lat;lon;timestamp;P1;durP1;ratioP1;P2;durP2;ratioP2
76290;SDS011;65100;46.884;17.410;2023-04-06T00:00:23;10.97;;;5.77;;
76290;SDS011;65100;46.884;17.410;2023-04-06T00:02:49;10.93;;;5.78;;
76290;SDS011;65100;46.884;17.410;2023-04-06T00:05:14;11.15;;;5.82;;
76290;SDS011;65100;46.884;17.410;2023-04-06T00:07:40;11.48;;;5.75;;
76290;SDS011;65100;46.884;17.410;2023-04-06T00:10:06;10.73;;;5.00;;
76290;SDS011;65100;46.884;17.410;2023-04-06T00:12:32;11.50;;;5.75;;
76290;SDS011;65100;46.884;17.410;2023-04-06T00:14:57;11.00;;;5.40;;
76290;SDS011;65100;46.884;17.410;2023-04-06T00:17:23;11.23;;;5.40;;
76290;SDS011;65100;46.884;17.410;2023-04-06T00:19:48;10.35;;;5.95;;
76290;SDS011;65100;46.884;17.410;2023-04-06T00:22:14;13.37;;;5.77;;
76290;SDS011;65100;46.884;17.410;2023-04-06T00:24:39;10.57;;;5.30;;
76290;SDS011;65100;46.884;17.410;2023-04-06T00:27:05;12.00;;;5.88;;
76290;SDS011;65100;46.884;17.410;2023-04-06T00:29:30;10.43;;;6.03;;
76290;SDS011;65100;46.884;17.410;2023-04-06T00:31:56;12.40;;;5.57;;
76290;SDS011;65100;46.884;17.410;2023-04-06T00:34:21;10.23;;;5.30;;
76290;SDS011;65100;46.884;17.410;2023-04-06T00:36:47;11.30;;;5.43;;
76290;SDS011;65100;46.884;17.410;2023-04-06T00:39:12;11.97;;;5.73;;
76290;SDS011;65100;46.884;17.410;2023-04-06T00:41:38;11.27;;;5.47;;
76290;SDS011;65100;46.884;17.410;2023-04-06T00:44:06;11.15;;;5.75;;
76290;SDS011;65100;46.884;17.410;2023-04-06T00:46:31;10.38;;;5.93;;
76290;SDS011;65100;46.884;17.410;2023-04-06T00:48:57;11.43;;;4.97;;
76290;SDS011;65100;46.884;17.410;2023-04-06T00:51:23;11.00;;;5.57;;
76290;SDS011;65100;46.884;17.410;2023-04-06T00:53:48;11.87;;;6.00;;
76290;SDS011;65100;46.884;17.410;2023-04-06T00:56:14;12.70;;;5.78;;
76290;SDS011;65100;46.884;17.410;2023-04-06T00:58:40;11.50;;;5.80;;
76290;SDS011;65100;46.884;17.410;2023-04-06T01:01:05;11.03;;;5.80;;
76290;SDS011;65100;46.884;17.410;2023-04-06T01:03:31;12.75;;;5.63;;
76290;SDS011;65100;46.884;17.410;2023-04-06T01:05:56;11.00;;;5.13;;
76290;SDS011;65100;46.884;17.410;2023-04-06T01:08:23;11.25;;;5.63;;
76290;SDS011;65100;46.884;17.410;2023-04-06T01:10:49;10.45;;;5.00;;
76290;SDS011;65100;46.884;17.410;2023-04-06T01:13:15;11.93;;;5.20;;
76290;SDS011;65100;46.884;17.410;2023-04-06T01:15:41;11.05;;;5.53;;
76290;SDS011;65100;46.884;17.410;2023-04-06T01:18:10;11.65;;;6.40;;
76290;SDS011;65100;46.884;17.410;2023-04-06T01:20:35;10.57;;;5.30;;
76290;SDS011;65100;46.884;17.410;2023-04-06T01:23:01;10.45;;;4.82;;
76290;SDS011;65100;46.884;17.410;2023-04-06T01:25:27;10.68;;;5.68;;
76290;SDS011;65100;46.884;17.410;2023-04-06T01:27:52;10.00;;;5.13;;
76290;SDS011;65100;46.884;17.410;2023-04-06T01:30:18;13.10;;;6.13;;
76290;SDS011;65100;46.884;17.410;2023-04-06T01:32:44;10.05;;;5.00;;
76290;SDS011;65100;46.884;17.410;2023-04-06T01:35:09;10.50;;;5.32;;
76290;SDS011;65100;46.884;17.410;2023-04-06T01:37:35;11.67;;;5.87;;
76290;SDS011;65100;46.884;17.410;2023-04-06T01:40:02;11.50;;;5.22;;
76290;SDS011;65100;46.884;17.410;2023-04-06T01:42:27;12.15;;;5.75;;
76290;SDS011;65100;46.884;17.410;2023-04-06T01:44:53;11.07;;;5.50;;
76290;SDS011;65100;46.884;17.410;2023-04-06T01:47:18;12.05;;;6.13;;
76290;SDS011;65100;46.884;17.410;2023-04-06T01:49:44;9.83;;;5.07;;
76290;SDS011;65100;46.884;17.410;2023-04-06T01:52:10;12.65;;;5.43;;
76290;SDS011;65100;46.884;17.410;2023-04-06T01:54:35;10.80;;;4.90;;
76290;SDS011;65100;46.884;17.410;2023-04-06T01:57:01;12.03;;;6.33;;
76290;SDS011;65100;46.884;17.410;2023-04-06T01:59:26;10.60;;;5.57;;
76290;SDS011;65100;46.884;17.410;2023-04-06T02:01:52;11.30;;;6.10;;
76290;SDS011;65100;46.884;17.410;2023-04-06T02:04:17;11.23;;;6.00;;
76290;SDS011;65100;46.884;17.410;2023-04-06T02:06:43;10.10;;;6.05;;
76290;SDS011;65100;46.884;17.410;2023-04-06T02:09:08;12.03;;;5.33;;
76290;SDS011;65100;46.884;17.410;2023-04-06T02:11:34;13.07;;;5.73;;
76290;SDS011;65100;46.884;17.410;2023-04-06T02:14:00;10.43;;;5.15;;
76290;SDS011;65100;46.884;17.410;2023-04-06T02:16:26;10.07;;;5.33;;
76290;SDS011;65100;46.884;17.410;2023-04-06T02:18:51;11.47;;;5.80;;
76290;SDS011;65100;46.884;17.410;2023-04-06T02:21:17;10.73;;;5.30;;
76290;SDS011;65100;46.884;17.410;2023-04-06T02:23:45;12.10;;;6.20;;
76290;SDS011;65100;46.884;17.410;2023-04-06T02:26:11;10.98;;;5.95;;
76290;SDS011;65100;46.884;17.410;2023-04-06T02:28:37;10.87;;;5.60;;
76290;SDS011;65100;46.884;17.410;2023-04-06T02:31:02;11.17;;;5.23;;
76290;SDS011;65100;46.884;17.410;2023-04-06T02:33:28;13.38;;;5.85;;
76290;SDS011;65100;46.884;17.410;2023-04-06T02:35:54;12.63;;;6.17;;
76290;SDS011;65100;46.884;17.410;2023-04-06T02:38:20;11.15;;;5.60;;
76290;SDS011;65100;46.884;17.410;2023-04-06T02:40:45;13.67;;;6.17;;
76290;SDS011;65100;46.884;17.410;2023-04-06T02:43:10;11.57;;;6.22;;
76290;SDS011;65100;46.884;17.410;2023-04-06T02:45:36;11.70;;;5.83;;
76290;SDS011;65100;46.884;17.410;2023-04-06T02:48:01;12.43;;;5.70;;
76290;SDS011;65100;46.884;17.410;2023-04-06T02:50:27;12.93;;;5.90;;
76290;SDS011;65100;46.884;17.410;2023-04-06T02:52:52;11.10;;;5.38;;
76290;SDS011;65100;46.884;17.410;2023-04-06T02:55:18;11.30;;;5.67;;
76290;SDS011;65100;46.884;17.410;2023-04-06T02:57:44;12.60;;;6.28;;
76290;SDS011;65100;46.884;17.410;2023-04-06T03:00:10;12.97;;;6.60;;
76290;SDS011;65100;46.884;17.410;2023-04-06T03:02:36;12.80;;;5.53;;
76290;SDS011;65100;46.884;17.410;2023-04-06T03:05:02;11.57;;;4.95;;
76290;SDS011;65100;46.884;17.410;2023-04-06T03:07:28;11.50;;;6.00;;
76290;SDS011;65100;46.884;17.410;2023-04-06T03:09:54;12.10;;;6.22;;
76290;SDS011;65100;46.884;17.410;2023-04-06T03:12:19;12.07;;;5.67;;
76290;SDS011;65100;46.884;17.410;2023-04-06T03:14:45;13.15;;;5.43;;
76290;SDS011;65100;46.884;17.410;2023-04-06T03:17:11;12.17;;;5.93;;
76290;SDS011;65100;46.884;17.410;2023-04-06T03:22:43;10.95;;;5.85;;
76290;SDS011;65100;46.884;17.410;2023-04-06T03:25:08;15.37;;;6.23;;
76290;SDS011;65100;46.884;17.410;2023-04-06T03:27:34;11.03;;;6.07;;
76290;SDS011;65100;46.884;17.410;2023-04-06T03:29:59;12.27;;;5.75;;
76290;SDS011;65100;46.884;17.410;2023-04-06T03:32:25;11.20;;;6.07;;
76290;SDS011;65100;46.884;17.410;2023-04-06T03:34:51;12.95;;;6.38;;
76290;SDS011;65100;46.884;17.410;2023-04-06T03:37:16;12.00;;;5.83;;
76290;SDS011;65100;46.884;17.410;2023-04-06T03:39:42;12.17;;;6.30;;
76290;SDS011;65100;46.884;17.410;2023-04-06T03:42:07;11.27;;;5.60;;
76290;SDS011;65100;46.884;17.410;2023-04-06T03:44:33;12.80;;;6.27;;
76290;SDS011;65100;46.884;17.410;2023-04-06T03:46:59;12.73;;;6.05;;
76290;SDS011;65100;46.884;17.410;2023-04-06T03:49:25;13.07;;;6.57;;
76290;SDS011;65100;46.884;17.410;2023-04-06T03:51:53;12.77;;;6.33;;
76290;SDS011;65100;46.884;17.410;2023-04-06T03:54:18;11.93;;;6.38;;
76290;SDS011;65100;46.884;17.410;2023-04-06T03:56:44;11.87;;;5.37;;
76290;SDS011;65100;46.884;17.410;2023-04-06T03:59:09;12.63;;;6.10;;
76290;SDS011;65100;46.884;17.410;2023-04-06T04:01:35;11.93;;;5.43;;
76290;SDS011;65100;46.884;17.410;2023-04-06T04:04:00;12.50;;;6.93;;
76290;SDS011;65100;46.884;17.410;2023-04-06T04:06:26;13.20;;;7.03;;
76290;SDS011;65100;46.884;17.410;2023-04-06T04:08:51;13.83;;;6.80;;
76290;SDS011;65100;46.884;17.410;2023-04-06T04:11:17;12.43;;;6.57;;
76290;SDS011;65100;46.884;17.410;2023-04-06T04:13:43;12.70;;;6.60;;
76290;SDS011;65100;46.884;17.410;2023-04-06T04:16:08;13.30;;;6.10;;
76290;SDS011;65100;46.884;17.410;2023-04-06T04:18:34;13.00;;;6.60;;
76290;SDS011;65100;46.884;17.410;2023-04-06T04:21:00;12.73;;;7.03;;
76290;SDS011;65100;46.884;17.410;2023-04-06T04:23:25;13.73;;;6.43;;
76290;SDS011;65100;46.884;17.410;2023-04-06T04:25:51;12.37;;;6.47;;
76290;SDS011;65100;46.884;17.410;2023-04-06T04:28:16;14.50;;;6.73;;
76290;SDS011;65100;46.884;17.410;2023-04-06T04:30:41;14.57;;;6.40;;
76290;SDS011;65100;46.884;17.410;2023-04-06T04:33:07;12.60;;;6.43;;
76290;SDS011;65100;46.884;17.410;2023-04-06T04:35:32;12.83;;;6.37;;
76290;SDS011;65100;46.884;17.410;2023-04-06T04:37:58;12.20;;;6.13;;
76290;SDS011;65100;46.884;17.410;2023-04-06T04:40:23;14.77;;;6.57;;
76290;SDS011;65100;46.884;17.410;2023-04-06T04:42:49;12.83;;;6.33;;
76290;SDS011;65100;46.884;17.410;2023-04-06T04:45:16;12.25;;;6.55;;
76290;SDS011;65100;46.884;17.410;2023-04-06T04:47:41;14.27;;;6.95;;
76290;SDS011;65100;46.884;17.410;2023-04-06T04:50:07;12.03;;;6.07;;
76290;SDS011;65100;46.884;17.410;2023-04-06T04:52:33;12.48;;;5.80;;
76290;SDS011;65100;46.884;17.410;2023-04-06T04:54:58;12.83;;;6.17;;
76290;SDS011;65100;46.884;17.410;2023-04-06T04:57:24;12.73;;;6.10;;
76290;SDS011;65100;46.884;17.410;2023-04-06T04:59:49;11.82;;;6.15;;
76290;SDS011;65100;46.884;17.410;2023-04-06T05:02:16;12.57;;;6.53;;
76290;SDS011;65100;46.884;17.410;2023-04-06T05:04:41;13.37;;;6.30;;
76290;SDS011;65100;46.884;17.410;2023-04-06T05:07:07;12.98;;;6.55;;
76290;SDS011;65100;46.884;17.410;2023-04-06T05:09:34;13.57;;;5.77;;
76290;SDS011;65100;46.884;17.410;2023-04-06T05:12:00;13.50;;;6.57;;
76290;SDS011;65100;46.884;17.410;2023-04-06T05:14:26;12.85;;;6.55;;
76290;SDS011;65100;46.884;17.410;2023-04-06T05:16:52;15.48;;;7.20;;
76290;SDS011;65100;46.884;17.410;2023-04-06T05:19:18;13.85;;;7.55;;
76290;SDS011;65100;46.884;17.410;2023-04-06T05:21:44;12.67;;;7.80;;
76290;SDS011;65100;46.884;17.410;2023-04-06T05:24:10;15.25;;;7.25;;
76290;SDS011;65100;46.884;17.410;2023-04-06T05:26:35;13.83;;;6.30;;
76290;SDS011;65100;46.884;17.410;2023-04-06T05:29:01;12.93;;;6.90;;
76290;SDS011;65100;46.884;17.410;2023-04-06T05:31:26;14.57;;;7.32;;
76290;SDS011;65100;46.884;17.410;2023-04-06T05:33:52;13.53;;;7.03;;
76290;SDS011;65100;46.884;17.410;2023-04-06T05:36:17;15.63;;;7.95;;
76290;SDS011;65100;46.884;17.410;2023-04-06T05:38:43;12.83;;;6.60;;
76290;SDS011;65100;46.884;17.410;2023-04-06T05:41:08;14.20;;;8.10;;
76290;SDS011;65100;46.884;17.410;2023-04-06T05:43:34;14.38;;;7.53;;
76290;SDS011;65100;46.884;17.410;2023-04-06T05:46:00;15.70;;;8.03;;
76290;SDS011;65100;46.884;17.410;2023-04-06T05:48:25;13.48;;;8.00;;
76290;SDS011;65100;46.884;17.410;2023-04-06T05:50:51;13.40;;;7.23;;
76290;SDS011;65100;46.884;17.410;2023-04-06T05:53:16;14.53;;;7.50;;
76290;SDS011;65100;46.884;17.410;2023-04-06T05:55:42;14.85;;;7.80;;
76290;SDS011;65100;46.884;17.410;2023-04-06T05:58:07;17.13;;;9.20;;
76290;SDS011;65100;46.884;17.410;2023-04-06T06:00:34;16.90;;;9.35;;
76290;SDS011;65100;46.884;17.410;2023-04-06T06:02:59;14.70;;;8.00;;
76290;SDS011;65100;46.884;17.410;2023-04-06T06:05:25;17.23;;;9.23;;
76290;SDS011;65100;46.884;17.410;2023-04-06T06:07:51;15.73;;;8.17;;
76290;SDS011;65100;46.884;17.410;2023-04-06T06:10:17;14.95;;;9.25;;
76290;SDS011;65100;46.884;17.410;2023-04-06T06:12:42;28.80;;;15.30;;
76290;SDS011;65100;46.884;17.410;2023-04-06T06:15:08;24.73;;;15.40;;
76290;SDS011;65100;46.884;17.410;2023-04-06T06:17:34;21.65;;;11.90;;
76290;SDS011;65100;46.884;17.410;2023-04-06T06:19:59;16.67;;;8.98;;
76290;SDS011;65100;46.884;17.410;2023-04-06T06:22:25;43.27;;;25.10;;
76290;SDS011;65100;46.884;17.410;2023-04-06T06:24:50;19.07;;;10.77;;
76290;SDS011;65100;46.884;17.410;2023-04-06T06:27:16;15.02;;;8.68;;
76290;SDS011;65100;46.884;17.410;2023-04-06T06:29:41;15.77;;;8.57;;
76290;SDS011;65100;46.884;17.410;2023-04-06T06:32:07;14.83;;;7.77;;
76290;SDS011;65100;46.884;17.410;2023-04-06T06:34:34;15.35;;;9.43;;
76290;SDS011;65100;46.884;17.410;2023-04-06T06:37:00;20.23;;;11.73;;
76290;SDS011;65100;46.884;17.410;2023-04-06T06:39:27;18.20;;;9.18;;
76290;SDS011;65100;46.884;17.410;2023-04-06T06:41:52;15.27;;;8.50;;
76290;SDS011;65100;46.884;17.410;2023-04-06T06:44:20;15.02;;;8.45;;
76290;SDS011;65100;46.884;17.410;2023-04-06T06:46:46;15.23;;;8.07;;
76290;SDS011;65100;46.884;17.410;2023-04-06T06:49:12;18.27;;;10.17;;
76290;SDS011;65100;46.884;17.410;2023-04-06T06:51:38;15.27;;;8.67;;
76290;SDS011;65100;46.884;17.410;2023-04-06T06:54:03;14.10;;;8.73;;
76290;SDS011;65100;46.884;17.410;2023-04-06T06:56:29;14.30;;;7.88;;
76290;SDS011;65100;46.884;17.410;2023-04-06T06:58:54;14.13;;;8.93;;
76290;SDS011;65100;46.884;17.410;2023-04-06T07:01:20;15.83;;;8.57;;
76290;SDS011;65100;46.884;17.410;2023-04-06T07:03:45;15.60;;;8.95;;
76290;SDS011;65100;46.884;17.410;2023-04-06T07:06:11;14.17;;;9.00;;
76290;SDS011;65100;46.884;17.410;2023-04-06T07:08:36;16.07;;;7.27;;
76290;SDS011;65100;46.884;17.410;2023-04-06T07:11:02;14.18;;;8.70;;
76290;SDS011;65100;46.884;17.410;2023-04-06T07:13:27;14.20;;;8.23;;
76290;SDS011;65100;46.884;17.410;2023-04-06T07:15:53;13.00;;;8.30;;
76290;SDS011;65100;46.884;17.410;2023-04-06T07:18:19;15.40;;;9.20;;
76290;SDS011;65100;46.884;17.410;2023-04-06T07:20:45;15.88;;;9.30;;
76290;SDS011;65100;46.884;17.410;2023-04-06T07:23:10;15.40;;;9.27;;
76290;SDS011;65100;46.884;17.410;2023-04-06T07:25:36;15.77;;;9.13;;
76290;SDS011;65100;46.884;17.410;2023-04-06T07:28:02;15.32;;;9.07;;
76290;SDS011;65100;46.884;17.410;2023-04-06T07:30:28;17.77;;;9.00;;
76290;SDS011;65100;46.884;17.410;2023-04-06T07:32:54;18.02;;;9.10;;
76290;SDS011;65100;46.884;17.410;2023-04-06T07:35:24;16.13;;;9.70;;
76290;SDS011;65100;46.884;17.410;2023-04-06T07:37:51;16.13;;;8.93;;
76290;SDS011;65100;46.884;17.410;2023-04-06T07:40:17;14.80;;;9.35;;
76290;SDS011;65100;46.884;17.410;2023-04-06T07:42:44;14.48;;;8.05;;
76290;SDS011;65100;46.884;17.410;2023-04-06T07:45:10;15.18;;;7.40;;
76290;SDS011;65100;46.884;17.410;2023-04-06T07:47:36;14.20;;;6.67;;
76290;SDS011;65100;46.884;17.410;2023-04-06T07:50:01;14.47;;;8.13;;
76290;SDS011;65100;46.884;17.410;2023-04-06T07:52:27;12.20;;;6.47;;
76290;SDS011;65100;46.884;17.410;2023-04-06T07:54:52;15.70;;;9.13;;
76290;SDS011;65100;46.884;17.410;2023-04-06T07:57:18;14.52;;;8.27;;
76290;SDS011;65100;46.884;17.410;2023-04-06T08:00:04;14.13;;;6.87;;
76290;SDS011;65100;46.884;17.410;2023-04-06T08:02:33;14.10;;;6.97;;
76290;SDS011;65100;46.884;17.410;2023-04-06T08:04:59;11.00;;;5.03;;
76290;SDS011;65100;46.884;17.410;2023-04-06T08:07:24;13.53;;;7.33;;
76290;SDS011;65100;46.884;17.410;2023-04-06T08:09:51;12.93;;;6.97;;
76290;SDS011;65100;46.884;17.410;2023-04-06T08:12:17;12.38;;;6.22;;
76290;SDS011;65100;46.884;17.410;2023-04-06T08:14:42;12.27;;;6.53;;
76290;SDS011;65100;46.884;17.410;2023-04-06T08:17:08;13.57;;;7.25;;
76290;SDS011;65100;46.884;17.410;2023-04-06T08:19:33;15.80;;;8.17;;
76290;SDS011;65100;46.884;17.410;2023-04-06T08:21:59;12.35;;;6.60;;
76290;SDS011;65100;46.884;17.410;2023-04-06T08:24:24;12.70;;;7.50;;
76290;SDS011;65100;46.884;17.410;2023-04-06T08:26:50;12.87;;;7.07;;
76290;SDS011;65100;46.884;17.410;2023-04-06T08:29:16;13.23;;;6.63;;
76290;SDS011;65100;46.884;17.410;2023-04-06T08:31:41;13.10;;;6.70;;
76290;SDS011;65100;46.884;17.410;2023-04-06T08:34:07;15.38;;;8.00;;
76290;SDS011;65100;46.884;17.410;2023-04-06T08:36:32;13.93;;;7.70;;
76290;SDS011;65100;46.884;17.410;2023-04-06T08:38:59;12.77;;;7.28;;
76290;SDS011;65100;46.884;17.410;2023-04-06T08:41:25;13.97;;;7.00;;
76290;SDS011;65100;46.884;17.410;2023-04-06T08:46:26;14.32;;;8.38;;
76290;SDS011;65100;46.884;17.410;2023-04-06T08:49:00;13.20;;;7.07;;
76290;SDS011;65100;46.884;17.410;2023-04-06T08:51:27;14.57;;;8.00;;
76290;SDS011;65100;46.884;17.410;2023-04-06T08:53:55;15.70;;;8.40;;
76290;SDS011;65100;46.884;17.410;2023-04-06T08:56:27;15.27;;;7.90;;
76290;SDS011;65100;46.884;17.410;2023-04-06T08:58:53;14.73;;;7.30;;
76290;SDS011;65100;46.884;17.410;2023-04-06T09:01:21;12.35;;;6.53;;
76290;SDS011;65100;46.884;17.410;2023-04-06T09:03:57;11.47;;;5.07;;
76290;SDS011;65100;46.884;17.410;2023-04-06T09:06:25;11.32;;;6.05;;
76290;SDS011;65100;46.884;17.410;2023-04-06T09:08:54;11.38;;;6.28;;
76290;SDS011;65100;46.884;17.410;2023-04-06T09:11:20;12.23;;;6.40;;
76290;SDS011;65100;46.884;17.410;2023-04-06T09:16:11;9.23;;;4.65;;
76290;SDS011;65100;46.884;17.410;2023-04-06T09:18:37;10.73;;;5.07;;
76290;SDS011;65100;46.884;17.410;2023-04-06T09:21:03;10.82;;;5.90;;
76290;SDS011;65100;46.884;17.410;2023-04-06T09:23:30;10.57;;;5.10;;
76290;SDS011;65100;46.884;17.410;2023-04-06T09:31:12;11.20;;;5.03;;
76290;SDS011;65100;46.884;17.410;2023-04-06T09:33:42;8.38;;;4.03;;
76290;SDS011;65100;46.884;17.410;2023-04-06T09:36:09;9.17;;;4.90;;
76290;SDS011;65100;46.884;17.410;2023-04-06T09:38:38;11.48;;;5.78;;
76290;SDS011;65100;46.884;17.410;2023-04-06T09:41:04;11.05;;;5.03;;
76290;SDS011;65100;46.884;17.410;2023-04-06T09:43:29;10.30;;;5.67;;
76290;SDS011;65100;46.884;17.410;2023-04-06T09:45:55;10.00;;;5.28;;
76290;SDS011;65100;46.884;17.410;2023-04-06T09:48:22;11.27;;;5.88;;
76290;SDS011;65100;46.884;17.410;2023-04-06T09:50:49;10.17;;;5.40;;
76290;SDS011;65100;46.884;17.410;2023-04-06T09:53:20;10.15;;;4.38;;
76290;SDS011;65100;46.884;17.410;2023-04-06T09:55:46;9.07;;;4.53;;
76290;SDS011;65100;46.884;17.410;2023-04-06T09:58:16;11.93;;;6.22;;
76290;SDS011;65100;46.884;17.410;2023-04-06T10:00:53;12.70;;;5.93;;
76290;SDS011;65100;46.884;17.410;2023-04-06T10:05:52;7.97;;;3.53;;
76290;SDS011;65100;46.884;17.410;2023-04-06T10:08:27;9.27;;;4.20;;
76290;SDS011;65100;46.884;17.410;2023-04-06T10:10:54;9.95;;;4.50;;
76290;SDS011;65100;46.884;17.410;2023-04-06T10:13:20;11.02;;;5.55;;
76290;SDS011;65100;46.884;17.410;2023-04-06T10:15:46;14.55;;;5.55;;
76290;SDS011;65100;46.884;17.410;2023-04-06T10:18:12;11.18;;;4.82;;
76290;SDS011;65100;46.884;17.410;2023-04-06T10:23:12;7.78;;;3.80;;
76290;SDS011;65100;46.884;17.410;2023-04-06T10:28:23;10.32;;;4.75;;
76290;SDS011;65100;46.884;17.410;2023-04-06T10:30:56;10.60;;;4.03;;
76290;SDS011;65100;46.884;17.410;2023-04-06T10:33:23;10.20;;;4.83;;
76290;SDS011;65100;46.884;17.410;2023-04-06T10:35:48;10.50;;;4.45;;
76290;SDS011;65100;46.884;17.410;2023-04-06T10:38:14;10.13;;;4.67;;
76290;SDS011;65100;46.884;17.410;2023-04-06T10:40:40;9.95;;;4.15;;
76290;SDS011;65100;46.884;17.410;2023-04-06T10:43:13;9.15;;;4.03;;
76290;SDS011;65100;46.884;17.410;2023-04-06T10:45:54;11.03;;;4.00;;
76290;SDS011;65100;46.884;17.410;2023-04-06T10:48:21;8.77;;;4.35;;
76290;SDS011;65100;46.884;17.410;2023-04-06T10:50:47;10.10;;;4.80;;
76290;SDS011;65100;46.884;17.410;2023-04-06T10:53:26;9.37;;;4.23;;
76290;SDS011;65100;46.884;17.410;2023-04-06T10:55:56;10.57;;;5.05;;
76290;SDS011;65100;46.884;17.410;2023-04-06T10:58:28;11.77;;;5.85;;
76290;SDS011;65100;46.884;17.410;2023-04-06T11:00:54;11.20;;;5.53;;
76290;SDS011;65100;46.884;17.410;2023-04-06T11:03:21;10.15;;;5.57;;
76290;SDS011;65100;46.884;17.410;2023-04-06T11:05:47;8.63;;;4.03;;
76290;SDS011;65100;46.884;17.410;2023-04-06T11:10:49;12.43;;;6.13;;
76290;SDS011;65100;46.884;17.410;2023-04-06T11:13:15;10.37;;;5.10;;
76290;SDS011;65100;46.884;17.410;2023-04-06T11:15:40;9.82;;;4.82;;
76290;SDS011;65100;46.884;17.410;2023-04-06T11:18:06;12.83;;;6.17;;
76290;SDS011;65100;46.884;17.410;2023-04-06T11:20:31;9.13;;;4.13;;
76290;SDS011;65100;46.884;17.410;2023-04-06T11:22:57;11.02;;;5.82;;
76290;SDS011;65100;46.884;17.410;2023-04-06T11:25:24;11.27;;;6.05;;
76290;SDS011;65100;46.884;17.410;2023-04-06T11:27:52;12.97;;;6.17;;
76290;SDS011;65100;46.884;17.410;2023-04-06T11:30:18;11.10;;;5.93;;
76290;SDS011;65100;46.884;17.410;2023-04-06T11:32:44;9.98;;;4.60;;
76290;SDS011;65100;46.884;17.410;2023-04-06T11:35:21;12.83;;;5.63;;
76290;SDS011;65100;46.884;17.410;2023-04-06T11:37:50;11.98;;;5.90;;
76290;SDS011;65100;46.884;17.410;2023-04-06T11:40:20;10.57;;;5.90;;
76290;SDS011;65100;46.884;17.410;2023-04-06T11:42:53;7.93;;;4.50;;
76290;SDS011;65100;46.884;17.410;2023-04-06T11:45:21;9.55;;;5.00;;
76290;SDS011;65100;46.884;17.410;2023-04-06T11:47:55;8.30;;;3.40;;
76290;SDS011;65100;46.884;17.410;2023-04-06T11:50:24;10.65;;;5.88;;
76290;SDS011;65100;46.884;17.410;2023-04-06T11:53:00;12.02;;;5.40;;
76290;SDS011;65100;46.884;17.410;2023-04-06T11:55:27;9.52;;;4.85;;
76290;SDS011;65100;46.884;17.410;2023-04-06T11:57:53;10.00;;;5.80;;
76290;SDS011;65100;46.884;17.410;2023-04-06T12:00:18;10.68;;;5.18;;
76290;SDS011;65100;46.884;17.410;2023-04-06T12:02:46;9.57;;;5.03;;
76290;SDS011;65100;46.884;17.410;2023-04-06T12:05:12;10.93;;;5.47;;
76290;SDS011;65100;46.884;17.410;2023-04-06T12:07:38;12.50;;;6.20;;
76290;SDS011;65100;46.884;17.410;2023-04-06T12:10:04;10.43;;;5.70;;
76290;SDS011;65100;46.884;17.410;2023-04-06T12:12:29;8.77;;;4.22;;
76290;SDS011;65100;46.884;17.410;2023-04-06T12:14:55;10.63;;;6.03;;
76290;SDS011;65100;46.884;17.410;2023-04-06T12:17:21;8.20;;;4.00;;
76290;SDS011;65100;46.884;17.410;2023-04-06T12:19:47;8.90;;;4.43;;
76290;SDS011;65100;46.884;17.410;2023-04-06T12:22:12;11.38;;;5.43;;
76290;SDS011;65100;46.884;17.410;2023-04-06T12:24:38;9.67;;;4.90;;
76290;SDS011;65100;46.884;17.410;2023-04-06T12:27:03;9.55;;;4.30;;
76290;SDS011;65100;46.884;17.410;2023-04-06T12:29:29;11.17;;;5.10;;
76290;SDS011;65100;46.884;17.410;2023-04-06T12:31:55;8.30;;;4.10;;
76290;SDS011;65100;46.884;17.410;2023-04-06T12:34:21;7.55;;;3.97;;
76290;SDS011;65100;46.884;17.410;2023-04-06T12:36:46;9.83;;;3.37;;
76290;SDS011;65100;46.884;17.410;2023-04-06T12:39:12;8.13;;;3.27;;
76290;SDS011;65100;46.884;17.410;2023-04-06T12:41:37;8.30;;;3.13;;
76290;SDS011;65100;46.884;17.410;2023-04-06T12:44:06;9.27;;;4.40;;
76290;SDS011;65100;46.884;17.410;2023-04-06T12:46:31;9.15;;;4.30;;
76290;SDS011;65100;46.884;17.410;2023-04-06T12:48:57;8.27;;;4.23;;
76290;SDS011;65100;46.884;17.410;2023-04-06T12:51:24;8.43;;;3.60;;
76290;SDS011;65100;46.884;17.410;2023-04-06T12:53:52;8.02;;;4.10;;
76290;SDS011;65100;46.884;17.410;2023-04-06T12:56:18;9.15;;;4.25;;
76290;SDS011;65100;46.884;17.410;2023-04-06T12:58:46;9.63;;;4.70;;
76290;SDS011;65100;46.884;17.410;2023-04-06T13:01:11;8.45;;;4.38;;
76290;SDS011;65100;46.884;17.410;2023-04-06T13:03:38;9.68;;;4.82;;
76290;SDS011;65100;46.884;17.410;2023-04-06T13:06:04;10.38;;;5.25;;
76290;SDS011;65100;46.884;17.410;2023-04-06T13:08:29;8.97;;;4.80;;
76290;SDS011;65100;46.884;17.410;2023-04-06T13:10:55;9.73;;;5.07;;
76290;SDS011;65100;46.884;17.410;2023-04-06T13:13:24;11.63;;;5.47;;
76290;SDS011;65100;46.884;17.410;2023-04-06T13:15:51;10.00;;;5.17;;
76290;SDS011;65100;46.884;17.410;2023-04-06T13:18:18;11.25;;;5.30;;
76290;SDS011;65100;46.884;17.410;2023-04-06T13:20:44;9.63;;;5.32;;
76290;SDS011;65100;46.884;17.410;2023-04-06T13:23:09;11.60;;;5.70;;
76290;SDS011;65100;46.884;17.410;2023-04-06T13:25:36;9.32;;;4.80;;
76290;SDS011;65100;46.884;17.410;2023-04-06T13:28:02;8.38;;;4.38;;
76290;SDS011;65100;46.884;17.410;2023-04-06T13:30:28;11.15;;;6.35;;
76290;SDS011;65100;46.884;17.410;2023-04-06T13:32:53;13.03;;;4.77;;
76290;SDS011;65100;46.884;17.410;2023-04-06T13:35:19;9.10;;;4.53;;
76290;SDS011;65100;46.884;17.410;2023-04-06T13:37:45;8.23;;;4.20;;
76290;SDS011;65100;46.884;17.410;2023-04-06T13:40:10;11.17;;;5.87;;
76290;SDS011;65100;46.884;17.410;2023-04-06T13:42:36;10.55;;;6.32;;
76290;SDS011;65100;46.884;17.410;2023-04-06T13:45:05;10.57;;;5.75;;
76290;SDS011;65100;46.884;17.410;2023-04-06T13:47:30;10.40;;;5.55;;
76290;SDS011;65100;46.884;17.410;2023-04-06T13:49:56;11.10;;;5.07;;
76290;SDS011;65100;46.884;17.410;2023-04-06T13:52:22;11.17;;;5.17;;
76290;SDS011;65100;46.884;17.410;2023-04-06T13:54:48;10.77;;;5.40;;
76290;SDS011;65100;46.884;17.410;2023-04-06T13:57:14;8.57;;;4.73;;
76290;SDS011;65100;46.884;17.410;2023-04-06T14:02:46;9.85;;;5.50;;
76290;SDS011;65100;46.884;17.410;2023-04-06T14:05:12;11.50;;;5.80;;
76290;SDS011;65100;46.884;17.410;2023-04-06T14:07:38;8.90;;;4.60;;
76290;SDS011;65100;46.884;17.410;2023-04-06T14:10:03;8.70;;;4.07;;
76290;SDS011;65100;46.884;17.410;2023-04-06T14:12:29;8.32;;;4.32;;
76290;SDS011;65100;46.884;17.410;2023-04-06T14:14:56;9.85;;;5.50;;
76290;SDS011;65100;46.884;17.410;2023-04-06T14:17:22;9.10;;;4.70;;
76290;SDS011;65100;46.884;17.410;2023-04-06T14:19:47;8.37;;;4.70;;
76290;SDS011;65100;46.884;17.410;2023-04-06T14:22:13;8.38;;;4.35;;
76290;SDS011;65100;46.884;17.410;2023-04-06T14:24:39;9.50;;;5.40;;
76290;SDS011;65100;46.884;17.410;2023-04-06T14:27:04;9.05;;;5.40;;
76290;SDS011;65100;46.884;17.410;2023-04-06T14:29:30;9.57;;;5.50;;
76290;SDS011;65100;46.884;17.410;2023-04-06T14:31:55;8.57;;;4.33;;
76290;SDS011;65100;46.884;17.410;2023-04-06T14:34:25;8.82;;;5.18;;
76290;SDS011;65100;46.884;17.410;2023-04-06T14:36:51;10.55;;;6.07;;
76290;SDS011;65100;46.884;17.410;2023-04-06T14:39:17;7.97;;;3.70;;
76290;SDS011;65100;46.884;17.410;2023-04-06T14:41:42;8.60;;;4.50;;
76290;SDS011;65100;46.884;17.410;2023-04-06T14:44:08;9.43;;;5.50;;